ADDS METAR Data INFO
IDs: Format: Raw Decoded Include TAF

Data at: 1522 UTC 18 Jun 2018

PADK 181456Z AUTO 10003KT 10SM OVC014 04/02 A2989 RMK AO2 SLP123 T00440022 50000
PADK 181356Z AUTO 00000KT 10SM OVC014 04/02 A2990 RMK AO2 SLP126 T00440022
PADK 181256Z AUTO 00000KT 10SM OVC014 05/02 A2989 RMK AO2 SLP123 T00500022
PADK 181156Z AUTO 35010KT 10SM OVC016 04/02 A2989 RMK AO2 SLP122 70001 T00440022 10072 20044 51003
PADK 181154Z AUTO 34010KT 10SM OVC016 04/02 A2989 RMK AO2
PADK 181127Z AUTO 35009KT 10SM OVC014 04/02 A2989 RMK AO2
PADK 181106Z AUTO 35009KT 10SM OVC016 04/02 A2989 RMK AO2
PADK 181056Z AUTO 34006KT 10SM OVC014 04/02 A2989 RMK AO2 SLP123 T00440022
PADK 180956Z AUTO 35012KT 10SM OVC012 05/03 A2989 RMK AO2 SLP120 T00500028 400830050
PADK 180856Z AUTO 35012KT 10SM OVC012 06/03 A2989 RMK AO2 SLP121 T00560028 51013
PADK 180756Z AUTO 36011KT 10SM OVC012 06/03 A2988 RMK AO2 SLP117 T00560028
PADK 180656Z AUTO 36011G17KT 10SM OVC014 06/03 A2986 RMK AO2 SLP112 T00610028
PADK 180556Z AUTO 01013KT 10SM OVC014 07/03 A2985 RMK AO2 SLP108 T00720033 10083 20067 53004
PADK 180456Z AUTO 01013KT 10SM BKN012 07/03 A2985 RMK AO2 SLP107 T00670033
PADK 180356Z AUTO 35014KT 10SM BKN014 08/03 A2984 RMK AO2 SLP104 T00780033
PADK 180335Z AUTO 01015KT 10SM FEW014 08/03 A2984 RMK AO2
PADK 180256Z AUTO 01013KT 10SM OVC014 07/04 A2984 RMK AO2 SLP104 T00720039 53003
PADK 180224Z AUTO 02014KT 9SM SCT007 OVC014 08/05 A2983 RMK AO2
PADK 180214Z AUTO 36015KT 6SM HZ BKN007 OVC012 07/04 A2983 RMK AO2
PADK 180156Z AUTO 01015G19KT 10SM FEW007 OVC012 07/05 A2983 RMK AO2 SLP101 T00720050
PADK 180137Z AUTO 01014KT 10SM SCT008 OVC012 07/05 A2983 RMK AO2
PADK 180056Z AUTO 36015KT 5SM BR OVC008 07/05 A2983 RMK AO2 CIG 006V010 SLP100 T00670050
PADK 180051Z AUTO 36016KT 7SM OVC008 07/05 A2983 RMK AO2 CIG 006V010
PADK 172356Z AUTO 01015KT 10SM OVC012 07/05 A2982 RMK AO2 SLP097 60000 T00670050 10072 20061 51009
PADK 172349Z AUTO 01014KT 10SM SCT005 OVC014 07/05 A2982 RMK AO2
PADK 172256Z AUTO 36016KT 6SM BR OVC005 07/06 A2981 RMK AO2 CIG 003V009 SLP095 T00670056
PADK 172246Z AUTO 01015KT 5SM BR OVC005 07/06 A2981 RMK AO2 CIG 003V009
PADK 172229Z AUTO 01015KT 2SM BR OVC005 06/06 A2981 RMK AO2 CIG 003V010
PADK 172156Z AUTO 01013KT 6SM BR OVC007 07/06 A2981 RMK AO2 CIG 006V011 SLP093 T00670056
PADK 172106Z AUTO 01016KT 10SM BKN007 OVC012 07/06 A2979 RMK AO2 CIG 005V010
PADK 172056Z AUTO 36015KT 10SM BKN005 OVC011 07/06 A2979 RMK AO2 RAB24E33 SLP088 P0000 60000 T00720061 51014
PADK 172027Z AUTO 34013G19KT 5SM -RA BR OVC005 06/06 A2979 RMK AO2 RAB24 P0000
PADK 171956Z AUTO 36015KT 3SM BR OVC003 06/06 A2978 RMK AO2 SLP085 T00610056
PADK 171926Z AUTO 36015G23KT 9SM OVC005 06/06 A2978 RMK AO2
PADK 171856Z AUTO 36012G18KT 4SM BR OVC003 06/06 A2977 RMK AO2 SLP081 T00610056
PADK 171756Z AUTO 36016G21KT 9SM OVC003 06/06 A2975 RMK AO2 RAE06 SLP075 P0000 60001 T00610056 10061 20056 53008
PADK 171704Z AUTO 01016G22KT 6SM -RA BR OVC005 06/06 A2974 RMK AO2 P0000
PADK 171656Z AUTO 36014G21KT 2 1/2SM -RA BR OVC005 06/06 A2974 RMK AO2 VIS 2V4 RAB02 SLP069 P0000 T00610056
PADK 171627Z AUTO 36016KT 1 3/4SM -RA BR OVC005 06/06 A2973 RMK AO2 RAB02 P0000
PADK 171605Z AUTO 36013KT 2SM -RA BR OVC005 06/06 A2973 RMK AO2 RAB02 P0000
PADK 171556Z AUTO 36015KT 4SM BR OVC005 06/06 A2973 RMK AO2 RAE06 SLP067 P0000 T00610056
PADK 171548Z AUTO 36011G19KT 5SM BR OVC005 06/06 A2973 RMK AO2 RAE06 P0000
PADK 171524Z AUTO 35012KT 2SM BR OVC005 06/06 A2972 RMK AO2 VIS 1 3/4V3 RAE06 P0000
PADK 171456Z AUTO 36011KT 4SM -RA BR OVC005 06/06 A2972 RMK AO2 RAE24B44 SLP063 P0001 60001 T00610056 51008
PADK 171356Z AUTO 36013KT 3SM -RA BR OVC005 06/06 A2971 RMK AO2 RAB18 SLP060 P0000 T00610056
PADK 171354Z AUTO 36013KT 3SM BR OVC005 06/06 A2971 RMK AO2 RAB18E41 P0000
PADK 171256Z AUTO 35013KT 5SM BR OVC003 06/06 A2969 RMK AO2 RAE39 SLP055 P0000 T00610056
PADK 171231Z AUTO 35012KT 3SM -RA BR OVC003 06/06 A2969 RMK AO2 P0000
PADK 171207Z AUTO 35015KT 3SM -RA BR OVC005 06/06 A2968 RMK AO2 P0000
PADK 171156Z AUTO 36012G18KT 2 1/2SM -RA BR OVC005 06/06 A2969 RMK AO2 RAB08 SLP052 P0000 60001 70003 T00610056 10067 20061 53004
PADK 171118Z AUTO 35012G18KT 2 1/2SM -RA BR OVC005 06/06 A2968 RMK AO2 RAB08 P0000
PADK 171105Z AUTO 36012KT 2 1/2SM BR OVC003 06/06 A2968 RMK AO2
PADK 171056Z AUTO 36011G17KT 3SM BR OVC003 06/06 A2968 RMK AO2 RAE03 SLP050 P0000 T00610056
PADK 171052Z AUTO 01011G17KT 3SM BR OVC003 06/06 A2968 RMK AO2 RAE03 P0000
PADK 171031Z AUTO 01012KT 2SM BR OVC003 06/06 A2967 RMK AO2 RAE03 P0000
PADK 171024Z AUTO 01010KT 3SM BR OVC003 06/06 A2967 RMK AO2 RAE03 P0000
PADK 170956Z AUTO 36011KT 2SM -RA BR OVC003 06/06 A2967 RMK AO2 RAB21 SLP048 P0001 T00610056 400830061
PADK 170906Z AUTO 36011G16KT 2 1/2SM BR OVC003 07/06 A2966 RMK AO2
PADK 170856Z AUTO 35011KT 5SM BR OVC005 07/06 A2966 RMK AO2 SLP044 T00670061 51015
PADK 170852Z AUTO 35009KT 5SM BR OVC005 07/06 A2966 RMK AO2
PADK 170825Z AUTO 35010KT 2 1/2SM BR OVC005 07/06 A2965 RMK AO2
PADK 170756Z AUTO 35010KT 1 3/4SM BR OVC005 07/06 A2964 RMK AO2 SLP037 T00670061
PADK 170747Z AUTO 36009KT 1 3/4SM BR OVC005 07/06 A2964 RMK AO2
PADK 170739Z AUTO 35010KT 2SM BR OVC005 07/06 A2963 RMK AO2
PADK 170725Z AUTO 36012KT 4SM BR OVC005 07/06 A2963 RMK AO2
PADK 170656Z AUTO 36013KT 2 1/2SM BR OVC005 07/06 A2962 RMK AO2 SLP029 T00670061
PADK 170640Z AUTO 36012KT 2 1/2SM BR OVC005 07/06 A2961 RMK AO2
PADK 170556Z AUTO 36012KT 3SM BR OVC005 07/06 A2960 RMK AO2 SLP025 T00670061 10078 20067 53016
PADK 170456Z AUTO 36012KT 5SM BR OVC005 07/06 A2959 RMK AO2 SLP019 T00720061
PADK 170444Z AUTO 36011KT 6SM BR OVC005 07/06 A2958 RMK AO2
PADK 170356Z AUTO 36012KT 6SM BR OVC003 08/07 A2957 RMK AO2 SLP012 T00780067